Time;durP1;ratioP1;P1;durP2;ratioP2;P2;SDS_P1;SDS_P2;PMS_P1;PMS_P2;Temp;Humidity;BMP_temperature;BMP_pressure;BME280_temperature;BME280_humidity;BME280_pressure;Samples;Min_cycle;Max_cycle;Signal;HPM_P1;HPM_P2
2022/07/25 00:00:00;;;;;;;3.35;2.00;;;25.90;55.10;;;;;;4997435;28;20030;-64
2022/07/25 00:02:26;;;;;;;2.10;1.90;;;25.80;55.20;;;;;;5002924;28;20041;-65
2022/07/25 00:04:52;;;;;;;3.28;2.15;;;25.90;55.30;;;;;;4997988;28;20473;-64
2022/07/25 00:07:17;;;;;;;2.45;2.25;;;25.80;55.20;;;;;;5010003;28;20452;-64
2022/07/25 00:09:43;;;;;;;2.60;2.40;;;25.80;55.10;;;;;;5006162;28;20123;-64
2022/07/25 00:12:09;;;;;;;2.70;2.50;;;25.90;55.00;;;;;;5007955;28;20030;-64
2022/07/25 00:14:34;;;;;;;2.88;2.47;;;25.80;55.00;;;;;;4995732;28;20030;-64
2022/07/25 00:17:00;;;;;;;2.45;2.25;;;25.80;55.10;;;;;;5008492;28;20435;-64
2022/07/25 00:19:25;;;;;;;2.28;2.08;;;25.80;55.10;;;;;;4998433;28;20053;-64
2022/07/25 00:21:51;;;;;;;2.47;2.17;;;25.70;55.10;;;;;;5007739;28;20025;-65
2022/07/25 00:24:17;;;;;;;3.03;2.70;;;25.70;55.20;;;;;;5005080;28;20484;-65
2022/07/25 00:26:42;;;;;;;3.78;3.35;;;25.60;55.30;;;;;;5008408;28;20049;-65
2022/07/25 00:29:08;;;;;;;4.68;3.15;;;25.60;55.20;;;;;;4994341;28;20112;-64
2022/07/25 00:31:33;;;;;;;4.10;3.00;;;25.60;55.20;;;;;;5012828;28;20026;-64
2022/07/25 00:33:59;;;;;;;3.42;2.72;;;25.60;55.10;;;;;;4995460;28;20027;-65
2022/07/25 00:36:24;;;;;;;2.42;2.22;;;25.60;55.00;;;;;;5005126;28;20034;-65
2022/07/25 00:38:50;;;;;;;2.50;2.30;;;25.70;54.90;;;;;;4997502;28;20018;-65
2022/07/25 00:41:16;;;;;;;2.97;2.63;;;25.70;54.80;;;;;;5012196;28;20511;-65
2022/07/25 00:43:43;;;;;;;4.00;2.60;;;25.70;54.70;;;;;;4997375;28;20030;-65
2022/07/25 00:46:12;;;;;;;2.53;2.33;;;25.70;54.70;;;;;;5009522;28;20186;-65
2022/07/25 00:48:38;;;;;;;2.45;2.25;;;25.70;54.70;;;;;;5013451;28;20033;-64
2022/07/25 00:51:04;;;;;;;3.45;2.70;;;25.70;54.70;;;;;;5005219;28;20469;-64
2022/07/25 00:53:30;;;;;;;4.15;3.00;;;25.70;54.80;;;;;;4999702;28;20089;-64
2022/07/25 00:55:56;;;;;;;4.35;3.17;;;25.60;54.90;;;;;;5002887;28;20560;-64
2022/07/25 00:58:21;;;;;;;4.30;3.30;;;25.60;54.90;;;;;;5012281;28;20018;-65
2022/07/25 01:00:47;;;;;;;4.78;3.08;;;25.60;54.90;;;;;;5011304;28;20388;-64
2022/07/25 01:03:13;;;;;;;3.17;2.80;;;25.60;55.00;;;;;;5013327;28;20034;-64
2022/07/25 01:05:38;;;;;;;3.00;2.50;;;25.60;55.00;;;;;;5014072;28;20452;-65
2022/07/25 01:08:04;;;;;;;3.17;2.33;;;25.60;54.90;;;;;;5012231;28;20421;-64
2022/07/25 01:10:31;;;;;;;3.33;2.50;;;25.60;55.40;;;;;;5011916;28;20025;-64
2022/07/25 01:12:57;;;;;;;3.78;2.80;;;25.50;54.90;;;;;;5011508;28;20033;-64
2022/07/25 01:15:25;;;;;;;3.13;2.83;;;25.50;55.10;;;;;;5020870;28;20100;-65
2022/07/25 01:17:51;;;;;;;4.28;2.85;;;25.40;55.20;;;;;;5016969;28;20033;-65
2022/07/25 01:20:17;;;;;;;3.55;3.25;;;25.40;55.40;;;;;;5004291;28;20030;-66
2022/07/25 01:22:43;;;;;;;4.18;3.20;;;25.40;55.50;;;;;;5017871;28;20133;-65
2022/07/25 01:25:10;;;;;;;4.50;3.40;;;25.30;55.50;;;;;;5025633;28;20100;-65
2022/07/25 01:27:36;;;;;;;4.05;3.00;;;25.30;55.50;;;;;;5018148;28;20075;-65
2022/07/25 01:30:05;;;;;;;3.72;2.88;;;25.30;55.40;;;;;;5011146;28;20030;-64
2022/07/25 01:32:30;;;;;;;4.00;3.08;;;25.30;55.20;;;;;;5013520;28;20029;-64
2022/07/25 01:34:56;;;;;;;3.75;2.90;;;25.40;55.20;;;;;;5010206;28;20165;-66
2022/07/25 01:37:21;;;;;;;5.13;3.45;;;25.30;55.20;;;;;;5010857;28;20030;-65
2022/07/25 01:39:47;;;;;;;3.58;3.28;;;25.30;55.20;;;;;;5009816;28;20022;-66
2022/07/25 01:42:12;;;;;;;4.70;3.30;;;25.30;55.20;;;;;;5010775;28;20093;-65
2022/07/25 01:44:38;;;;;;;3.22;2.90;;;25.30;55.20;;;;;;5005389;28;20520;-66
2022/07/25 01:47:04;;;;;;;3.45;3.15;;;25.30;55.20;;;;;;5011292;28;20034;-66
2022/07/25 01:49:29;;;;;;;3.30;3.00;;;25.30;55.10;;;;;;5008625;28;20500;-66
2022/07/25 01:51:55;;;;;;;3.63;2.80;;;25.30;55.10;;;;;;4999752;28;20524;-66
2022/07/25 01:54:20;;;;;;;3.90;3.28;;;25.30;55.10;;;;;;5011745;28;20022;-66
2022/07/25 01:56:46;;;;;;;3.80;3.20;;;25.30;55.00;;;;;;5003022;28;20034;-66
2022/07/25 01:59:11;;;;;;;3.92;3.30;;;25.30;55.00;;;;;;5010478;28;20038;-66
2022/07/25 02:01:37;;;;;;;4.38;3.10;;;25.30;55.10;;;;;;5011086;28;20032;-65
2022/07/25 02:04:02;;;;;;;4.68;3.20;;;25.30;55.10;;;;;;4994996;28;20025;-65
2022/07/25 02:06:28;;;;;;;3.30;3.00;;;25.30;55.10;;;;;;5021664;28;20026;-65
2022/07/25 02:08:53;;;;;;;3.42;3.13;;;25.30;55.20;;;;;;5019749;28;20029;-66
2022/07/25 02:11:19;;;;;;;3.20;2.88;;;25.20;55.20;;;;;;5002972;28;20034;-66
2022/07/25 02:13:44;;;;;;;3.50;3.20;;;25.20;55.20;;;;;;5016283;28;20037;-66
2022/07/25 02:16:11;;;;;;;3.67;3.20;;;25.20;55.30;;;;;;5016241;28;20085;-66
2022/07/25 02:18:36;;;;;;;4.63;3.70;;;25.20;55.30;;;;;;5011987;28;20030;-65
2022/07/25 02:21:06;;;;;;;3.40;3.00;;;25.20;55.40;;;;;;5011065;28;20101;-65
2022/07/25 02:23:32;;;;;;;4.07;3.42;;;25.10;55.40;;;;;;5011017;28;20022;-65
2022/07/25 02:25:57;;;;;;;4.38;3.63;;;25.10;55.60;;;;;;5002704;28;20040;-65
2022/07/25 02:28:23;;;;;;;6.95;3.47;;;25.10;55.70;;;;;;5006391;28;20454;-65
2022/07/25 02:30:49;;;;;;;4.32;3.50;;;25.10;55.80;;;;;;4999361;28;20040;-65
2022/07/25 02:33:14;;;;;;;4.82;3.65;;;25.00;55.90;;;;;;4999991;28;20105;-65
2022/07/25 02:35:40;;;;;;;4.25;3.42;;;24.90;56.10;;;;;;5002506;28;20030;-66
2022/07/25 02:38:06;;;;;;;3.45;3.10;;;24.90;56.30;;;;;;5011145;28;20573;-65
2022/07/25 02:40:31;;;;;;;3.80;3.20;;;24.90;56.30;;;;;;4993990;28;20029;-65
2022/07/25 02:42:57;;;;;;;3.08;2.78;;;24.90;56.40;;;;;;5000330;28;20366;-65
2022/07/25 02:45:22;;;;;;;3.80;3.40;;;24.80;56.40;;;;;;5002388;28;20512;-66
2022/07/25 02:47:48;;;;;;;3.55;3.20;;;24.80;56.50;;;;;;5005454;28;20511;-65
2022/07/25 02:50:13;;;;;;;3.83;3.10;;;24.80;56.50;;;;;;5011125;28;20026;-65
2022/07/25 02:52:39;;;;;;;4.30;3.47;;;24.80;56.60;;;;;;5012459;28;20029;-65
2022/07/25 02:55:05;;;;;;;5.30;3.60;;;24.80;56.70;;;;;;5016082;28;20025;-66
2022/07/25 02:57:31;;;;;;;5.10;3.70;;;24.70;56.70;;;;;;5004445;28;20477;-66
2022/07/25 02:59:56;;;;;;;5.18;3.35;;;24.70;56.80;;;;;;5016997;28;20036;-66
2022/07/25 03:02:22;;;;;;;5.88;3.97;;;24.70;56.80;;;;;;5021944;28;20087;-66
2022/07/25 03:04:47;;;;;;;6.05;4.68;;;24.60;56.80;;;;;;5011161;28;20026;-66
2022/07/25 03:07:13;;;;;;;5.20;4.13;;;24.70;56.90;;;;;;5013272;28;20030;-66
2022/07/25 03:09:38;;;;;;;5.88;4.68;;;24.60;57.00;;;;;;4991605;28;20028;-66
2022/07/25 03:12:04;;;;;;;5.63;3.60;;;24.50;57.10;;;;;;5005152;28;20711;-66
2022/07/25 03:14:30;;;;;;;4.07;3.63;;;24.50;57.30;;;;;;5007977;28;20491;-66
2022/07/25 03:16:55;;;;;;;6.43;4.25;;;24.50;57.40;;;;;;5010210;28;20087;-66
2022/07/25 03:19:21;;;;;;;5.05;3.63;;;24.40;57.70;;;;;;5011122;28;20500;-66
2022/07/25 03:21:47;;;;;;;4.43;3.50;;;24.40;57.70;;;;;;5016950;28;20025;-66
2022/07/25 03:24:13;;;;;;;4.20;3.28;;;24.40;57.70;;;;;;5013421;28;20385;-66
2022/07/25 03:26:38;;;;;;;4.30;3.33;;;24.40;57.70;;;;;;4997097;28;20109;-66
2022/07/25 03:29:04;;;;;;;3.65;3.35;;;24.30;57.70;;;;;;5004018;28;20037;-66
2022/07/25 03:31:29;;;;;;;5.43;3.38;;;24.30;57.70;;;;;;5009576;28;20026;-66
2022/07/25 03:33:55;;;;;;;4.50;3.63;;;24.30;57.70;;;;;;5008648;28;20026;-66
2022/07/25 03:36:21;;;;;;;4.30;3.47;;;24.30;57.70;;;;;;5001094;28;20515;-66
2022/07/25 03:38:46;;;;;;;3.70;3.10;;;24.30;57.80;;;;;;5008688;28;20030;-66
2022/07/25 03:41:12;;;;;;;4.57;3.58;;;24.30;57.80;;;;;;5004338;28;20519;-66
2022/07/25 03:43:38;;;;;;;4.10;3.50;;;24.30;57.70;;;;;;5007299;28;20042;-65
2022/07/25 03:46:03;;;;;;;4.80;3.40;;;24.30;57.80;;;;;;5008980;28;20708;-64
2022/07/25 03:48:29;;;;;;;4.65;4.00;;;24.30;57.90;;;;;;5010033;28;20056;-64
2022/07/25 03:50:56;;;;;;;5.38;3.72;;;24.30;57.90;;;;;;4991790;28;20026;-64
2022/07/25 03:53:21;;;;;;;4.22;3.40;;;24.30;58.00;;;;;;4994302;28;20476;-64
2022/07/25 03:55:47;;;;;;;3.67;3.30;;;24.30;58.00;;;;;;4993797;28;20038;-64
2022/07/25 03:58:13;;;;;;;3.55;3.22;;;24.30;57.90;;;;;;4996198;28;20022;-64
2022/07/25 04:00:38;;;;;;;3.65;3.22;;;24.20;57.90;;;;;;5003900;28;20033;-65
2022/07/25 04:03:04;;;;;;;4.00;3.33;;;24.30;57.90;;;;;;5003477;28;20033;-64
2022/07/25 04:05:29;;;;;;;4.70;3.50;;;24.20;58.00;;;;;;5005883;28;20101;-64
2022/07/25 04:07:55;;;;;;;4.97;3.53;;;24.20;58.00;;;;;;4994458;28;20100;-64
2022/07/25 04:10:21;;;;;;;4.85;3.47;;;24.20;58.10;;;;;;5010037;28;20054;-64
2022/07/25 04:12:47;;;;;;;6.28;4.00;;;24.20;58.10;;;;;;5013846;28;20060;-65
2022/07/25 04:15:12;;;;;;;4.20;3.63;;;24.20;58.20;;;;;;5003434;28;20434;-64
2022/07/25 04:17:38;;;;;;;4.68;4.05;;;24.10;58.20;;;;;;5013891;28;20038;-65
2022/07/25 04:20:04;;;;;;;5.97;3.63;;;24.10;58.30;;;;;;5012359;28;20061;-64
2022/07/25 04:22:30;;;;;;;5.53;3.92;;;24.10;58.40;;;;;;5012255;28;20064;-64
2022/07/25 04:24:56;;;;;;;5.40;4.30;;;24.20;58.40;;;;;;4998359;28;20065;-64
2022/07/25 04:27:21;;;;;;;4.38;3.78;;;24.10;58.60;;;;;;5008984;28;20381;-64
2022/07/25 04:29:47;;;;;;;4.30;3.53;;;24.10;58.60;;;;;;5011406;28;20508;-64
2022/07/25 04:32:13;;;;;;;4.55;4.05;;;24.10;58.50;;;;;;5011785;28;20034;-65
2022/07/25 04:34:39;;;;;;;4.10;3.70;;;24.10;58.70;;;;;;5013284;28;20101;-65
2022/07/25 04:37:04;;;;;;;4.75;3.53;;;24.10;58.60;;;;;;5007219;28;20549;-64
2022/07/25 04:39:30;;;;;;;5.60;3.67;;;24.20;58.50;;;;;;4998328;28;20035;-65
2022/07/25 04:41:56;;;;;;;3.97;3.30;;;24.20;58.50;;;;;;4993843;28;20133;-65
2022/07/25 04:44:21;;;;;;;4.65;3.53;;;24.30;58.40;;;;;;4998723;28;20073;-66
2022/07/25 04:46:47;;;;;;;4.57;3.72;;;24.20;58.30;;;;;;5006062;28;20489;-65
2022/07/25 04:49:12;;;;;;;5.05;4.55;;;24.20;58.30;;;;;;5012548;28;20895;-65
2022/07/25 04:51:38;;;;;;;4.28;3.70;;;24.30;58.40;;;;;;5001565;28;20180;-65
2022/07/25 04:54:04;;;;;;;4.25;3.75;;;24.30;58.30;;;;;;5008450;28;20030;-65
2022/07/25 04:56:29;;;;;;;5.10;3.80;;;24.30;58.30;;;;;;5009389;28;20026;-65
2022/07/25 04:58:55;;;;;;;4.78;4.28;;;24.40;58.30;;;;;;5018072;28;20028;-66
2022/07/25 05:01:21;;;;;;;5.25;4.50;;;24.40;58.20;;;;;;5010951;28;20477;-65
2022/07/25 05:03:46;;;;;;;6.50;4.78;;;24.30;58.00;;;;;;5014159;28;20022;-65
2022/07/25 05:06:12;;;;;;;4.57;3.85;;;24.30;57.90;;;;;;5017081;28;20547;-65
2022/07/25 05:08:37;;;;;;;5.03;3.72;;;24.40;57.70;;;;;;5023453;28;20056;-65
2022/07/25 05:11:03;;;;;;;4.97;4.30;;;24.40;57.60;;;;;;5005198;28;20019;-65
2022/07/25 05:13:29;;;;;;;7.07;5.63;;;24.50;57.50;;;;;;5022798;28;20447;-65
2022/07/25 05:15:54;;;;;;;7.50;4.70;;;24.50;57.40;;;;;;5007771;28;20038;-65
2022/07/25 05:18:20;;;;;;;6.53;5.63;;;24.50;57.20;;;;;;5007858;28;20105;-64
2022/07/25 05:20:46;;;;;;;6.38;5.68;;;24.60;57.10;;;;;;5011200;28;20465;-65
2022/07/25 05:23:11;;;;;;;6.47;5.03;;;24.60;57.00;;;;;;5012150;28;20050;-66
2022/07/25 05:25:37;;;;;;;6.60;5.32;;;24.60;56.90;;;;;;5009095;28;20138;-66
2022/07/25 05:28:03;;;;;;;6.80;5.05;;;24.80;56.80;;;;;;5012223;28;20055;-64
2022/07/25 05:30:29;;;;;;;7.15;5.50;;;25.00;56.30;;;;;;5009619;28;20112;-65
2022/07/25 05:32:54;;;;;;;5.82;4.70;;;25.10;55.80;;;;;;5005250;28;20052;-65
2022/07/25 05:35:20;;;;;;;5.45;4.43;;;25.20;55.70;;;;;;4999413;28;20029;-65
2022/07/25 05:37:45;;;;;;;6.25;5.28;;;25.50;55.40;;;;;;5010846;28;20497;-65
2022/07/25 05:40:11;;;;;;;7.18;4.53;;;26.00;54.70;;;;;;5009335;28;20091;-65
2022/07/25 05:42:37;;;;;;;6.00;5.07;;;26.40;53.60;;;;;;5003904;28;20125;-65
2022/07/25 05:45:03;;;;;;;5.65;4.95;;;26.40;53.20;;;;;;4998424;28;20451;-66
2022/07/25 05:47:29;;;;;;;6.05;4.80;;;26.20;53.40;;;;;;5000139;28;20018;-66
2022/07/25 05:49:54;;;;;;;8.45;6.95;;;26.10;53.80;;;;;;5010013;28;20091;-65
2022/07/25 05:52:21;;;;;;;6.97;5.68;;;26.00;54.10;;;;;;5003698;28;20026;-65
2022/07/25 05:54:46;;;;;;;8.50;7.13;;;26.20;53.80;;;;;;5003466;28;20497;-65
2022/07/25 05:57:12;;;;;;;6.75;5.43;;;26.30;53.40;;;;;;5006144;28;20060;-65
2022/07/25 05:59:37;;;;;;;7.13;5.28;;;26.20;53.50;;;;;;4998177;28;20026;-66
2022/07/25 06:02:03;;;;;;;6.85;6.15;;;26.30;53.60;;;;;;5002124;28;20041;-65
2022/07/25 06:04:29;;;;;;;6.18;5.10;;;26.60;53.10;;;;;;5007964;28;20093;-66
2022/07/25 06:06:55;;;;;;;6.65;4.57;;;27.00;52.40;;;;;;5004980;28;20025;-65
2022/07/25 06:09:21;;;;;;;7.03;5.00;;;27.40;52.00;;;;;;5011932;28;20028;-65
2022/07/25 06:11:48;;;;;;;7.05;5.90;;;27.50;51.50;;;;;;5007996;28;20123;-65
2022/07/25 06:14:15;;;;;;;5.50;4.85;;;27.70;51.10;;;;;;5006366;28;20022;-65
2022/07/25 06:16:41;;;;;;;6.30;5.50;;;27.70;51.00;;;;;;5000912;28;20040;-65
2022/07/25 06:19:06;;;;;;;6.22;5.38;;;27.60;50.80;;;;;;4994540;28;20109;-65
2022/07/25 06:21:32;;;;;;;8.57;6.45;;;27.70;50.80;;;;;;5004266;28;20129;-66
2022/07/25 06:23:58;;;;;;;6.70;5.57;;;27.70;50.60;;;;;;5005477;28;20495;-66
2022/07/25 06:26:23;;;;;;;7.65;5.70;;;28.30;50.00;;;;;;5003716;28;20030;-66
2022/07/25 06:28:50;;;;;;;6.50;5.70;;;28.70;49.10;;;;;;4995998;28;20025;-65
2022/07/25 06:31:16;;;;;;;6.80;5.00;;;28.70;48.80;;;;;;4993719;28;20018;-66
2022/07/25 06:33:41;;;;;;;6.63;4.78;;;28.80;48.90;;;;;;5000140;28;20076;-65
2022/07/25 06:36:07;;;;;;;6.63;5.22;;;28.90;49.00;;;;;;4997915;28;20393;-65
2022/07/25 06:38:33;;;;;;;7.43;5.68;;;28.90;48.90;;;;;;5003718;28;20390;-66
2022/07/25 06:40:59;;;;;;;7.10;4.85;;;29.00;49.00;;;;;;4998906;28;20022;-65
2022/07/25 06:43:24;;;;;;;7.30;5.38;;;28.80;49.20;;;;;;4998050;28;20551;-65
2022/07/25 06:45:50;;;;;;;4.45;3.90;;;28.30;49.70;;;;;;5005599;28;20023;-65
2022/07/25 06:48:16;;;;;;;6.07;5.22;;;28.10;50.30;;;;;;5006744;28;20026;-65
2022/07/25 06:50:42;;;;;;;5.43;4.72;;;27.90;50.90;;;;;;5005393;28;20026;-66
2022/07/25 06:53:08;;;;;;;5.00;4.50;;;27.70;51.30;;;;;;5004634;28;20030;-66
2022/07/25 06:55:34;;;;;;;5.88;4.88;;;27.60;51.60;;;;;;4999663;28;20105;-66
2022/07/25 06:57:59;;;;;;;6.10;4.72;;;27.50;51.90;;;;;;4992613;28;20687;-65
2022/07/25 07:00:25;;;;;;;5.88;4.72;;;27.30;51.90;;;;;;5000518;28;20511;-65
2022/07/25 07:02:56;;;;;;;5.95;5.18;;;27.10;52.20;;;;;;5002491;28;20164;-65
2022/07/25 07:05:27;;;;;;;5.32;4.25;;;27.00;52.60;;;;;;4997683;28;20029;-65
2022/07/25 07:07:53;;;;;;;4.45;3.97;;;26.90;52.90;;;;;;5006411;28;20026;-65
2022/07/25 07:10:19;;;;;;;5.15;4.10;;;26.80;53.10;;;;;;5005778;28;20029;-65
2022/07/25 07:12:45;;;;;;;7.10;4.45;;;26.80;53.10;;;;;;5002622;28;20034;-65
2022/07/25 07:15:11;;;;;;;4.95;3.72;;;26.80;52.80;;;;;;4999671;28;20026;-65
2022/07/25 07:17:37;;;;;;;4.78;4.20;;;27.00;52.80;;;;;;5001469;28;20056;-65
2022/07/25 07:20:04;;;;;;;5.22;4.15;;;27.10;52.50;;;;;;5007750;28;20079;-65
2022/07/25 07:22:30;;;;;;;6.05;3.80;;;27.10;52.50;;;;;;4999962;28;20026;-65
2022/07/25 07:24:56;;;;;;;6.53;3.95;;;27.20;52.50;;;;;;5002559;28;20026;-66
2022/07/25 07:27:24;;;;;;;4.85;3.70;;;27.20;52.20;;;;;;4995707;28;20029;-65
2022/07/25 07:29:50;;;;;;;6.07;4.20;;;27.20;52.00;;;;;;4998266;28;20093;-65
2022/07/25 07:32:16;;;;;;;3.13;2.78;;;27.00;52.00;;;;;;4998549;28;20101;-66
2022/07/25 07:34:41;;;;;;;4.40;3.60;;;27.20;52.10;;;;;;4998778;28;20022;-66
2022/07/25 07:37:07;;;;;;;4.43;3.20;;;27.30;51.60;;;;;;4994935;28;20433;-65
2022/07/25 07:39:32;;;;;;;3.50;2.92;;;27.30;52.00;;;;;;4992842;28;20061;-65
2022/07/25 07:41:58;;;;;;;4.03;3.08;;;27.40;51.40;;;;;;4992587;28;20044;-65
2022/07/25 07:44:25;;;;;;;4.47;3.00;;;27.30;51.20;;;;;;4996322;28;20056;-65
2022/07/25 07:46:50;;;;;;;3.50;2.80;;;27.30;51.30;;;;;;5003552;28;20093;-65
2022/07/25 07:49:16;;;;;;;3.25;2.75;;;27.20;51.80;;;;;;5004759;28;20022;-65
2022/07/25 07:51:41;;;;;;;5.47;2.80;;;27.20;51.40;;;;;;5002365;28;20041;-65
2022/07/25 07:56:51;;;;;;;4.15;2.63;;;27.30;51.30;;;;;;5005305;28;20040;-65
2022/07/25 07:59:16;;;;;;;2.97;2.30;;;27.40;51.20;;;;;;4993415;28;20034;-66
2022/07/25 08:01:42;;;;;;;2.75;2.35;;;27.50;50.90;;;;;;5000811;28;20112;-65
2022/07/25 08:04:07;;;;;;;2.63;2.10;;;27.60;50.70;;;;;;4997536;28;20030;-65
2022/07/25 08:06:33;;;;;;;2.72;2.50;;;27.60;50.40;;;;;;4998201;28;20059;-66
2022/07/25 08:08:58;;;;;;;2.65;2.45;;;27.60;50.10;;;;;;4995687;28;20026;-65
2022/07/25 08:11:25;;;;;;;4.40;2.50;;;27.60;49.70;;;;;;4998178;28;20080;-65
2022/07/25 08:13:51;;;;;;;2.55;2.00;;;27.70;49.50;;;;;;5000131;28;20022;-66
2022/07/25 08:16:17;;;;;;;1.98;1.77;;;27.80;49.30;;;;;;5000444;28;20045;-66
2022/07/25 08:18:43;;;;;;;2.35;1.90;;;27.90;49.20;;;;;;4998382;28;20018;-65
2022/07/25 08:21:08;;;;;;;2.70;1.88;;;27.90;49.40;;;;;;4994640;28;20553;-65
2022/07/25 08:23:37;;;;;;;2.80;1.90;;;27.70;49.70;;;;;;5003572;28;20693;-65
2022/07/25 08:26:03;;;;;;;1.85;1.60;;;27.60;50.00;;;;;;4998592;28;20042;-65
2022/07/25 08:28:29;;;;;;;3.47;1.60;;;27.40;50.00;;;;;;4996297;28;20152;-65
2022/07/25 08:30:55;;;;;;;2.58;1.70;;;27.30;50.10;;;;;;4997968;28;20097;-65
2022/07/25 08:33:20;;;;;;;2.17;1.52;;;27.30;49.70;;;;;;4996678;28;20058;-65
2022/07/25 08:35:48;;;;;;;1.70;1.58;;;27.40;49.30;;;;;;4999412;28;20064;-65
2022/07/25 08:38:14;;;;;;;1.63;1.50;;;27.30;48.90;;;;;;4996248;28;20505;-66
2022/07/25 08:40:39;;;;;;;1.67;1.48;;;27.30;48.80;;;;;;4999531;28;20061;-66
2022/07/25 08:43:09;;;;;;;2.38;1.52;;;27.40;48.80;;;;;;5003262;28;20026;-65
2022/07/25 08:45:35;;;;;;;2.75;1.48;;;27.40;48.50;;;;;;5007503;28;20048;-66
2022/07/25 08:48:01;;;;;;;1.42;1.33;;;27.50;48.40;;;;;;4998491;28;20507;-65
2022/07/25 08:50:28;;;;;;;2.00;1.30;;;27.60;48.50;;;;;;5003105;28;20034;-65
2022/07/25 08:52:54;;;;;;;1.58;1.20;;;27.60;48.40;;;;;;5001593;28;20108;-66
2022/07/25 08:55:22;;;;;;;2.00;1.38;;;27.60;48.50;;;;;;4999820;28;20403;-67
2022/07/25 08:57:50;;;;;;;1.40;1.20;;;27.70;48.60;;;;;;5001514;28;20539;-66
2022/07/25 09:00:21;;;;;;;1.40;1.30;;;27.80;48.60;;;;;;5004124;28;20027;-65
2022/07/25 09:02:55;;;;;;;1.60;1.27;;;27.80;48.60;;;;;;5001818;28;20066;-65
2022/07/25 09:05:21;;;;;;;1.77;1.20;;;27.90;48.70;;;;;;5005093;28;20485;-65
2022/07/25 09:07:48;;;;;;;1.75;1.20;;;28.00;48.70;;;;;;5002601;28;20022;-65
2022/07/25 09:10:22;;;;;;;2.47;1.67;;;28.10;48.80;;;;;;5003396;28;21523;-65
2022/07/25 09:12:54;;;;;;;2.33;1.20;;;28.20;48.80;;;;;;5000318;28;20037;-65
2022/07/25 09:15:40;;;;;;;1.30;1.20;;;28.30;48.90;;;;;;5004979;28;20053;-66
2022/07/25 09:18:09;;;;;;;1.27;1.17;;;28.30;49.00;;;;;;5001145;28;20164;-66
2022/07/25 09:20:43;;;;;;;1.35;1.13;;;28.30;49.10;;;;;;5004176;28;20116;-66
2022/07/25 09:23:32;;;;;;;2.85;1.30;;;28.20;49.50;;;;;;5000738;28;20112;-66
2022/07/25 09:26:08;;;;;;;2.40;1.10;;;28.20;50.00;;;;;;5003761;28;20097;-66
2022/07/25 09:28:41;;;;;;;1.30;1.20;;;28.30;50.00;;;;;;5001263;28;20023;-66
2022/07/25 09:31:08;;;;;;;3.35;1.20;;;28.30;50.00;;;;;;5006571;28;20026;-67
2022/07/25 09:33:42;;;;;;;1.52;1.13;;;28.20;50.20;;;;;;5004926;28;20538;-66
2022/07/25 09:36:12;;;;;;;1.15;1.00;;;28.10;50.50;;;;;;4998919;28;20030;-66
2022/07/25 09:38:37;;;;;;;1.17;1.08;;;28.00;51.30;;;;;;4997844;28;20416;-65
2022/07/25 09:41:03;;;;;;;1.52;1.02;;;28.00;51.60;;;;;;4999885;28;20045;-65
2022/07/25 09:43:43;;;;;;;1.13;0.90;;;28.10;51.70;;;;;;5003243;28;20117;-66
2022/07/25 09:46:10;;;;;;;2.20;1.00;;;28.20;51.60;;;;;;4999373;28;20023;-64
2022/07/25 09:48:38;;;;;;;1.98;0.85;;;28.10;51.70;;;;;;5003090;28;20030;-64
2022/07/25 09:51:05;;;;;;;1.17;0.85;;;28.00;51.70;;;;;;5004687;28;20030;-65
2022/07/25 09:53:31;;;;;;;2.63;0.90;;;28.00;51.50;;;;;;5002388;28;20145;-64
2022/07/25 09:55:57;;;;;;;1.63;0.80;;;28.10;51.30;;;;;;5000110;28;20085;-64
2022/07/25 09:58:27;;;;;;;0.70;0.70;;;28.20;51.30;;;;;;4999592;28;20033;-65
2022/07/25 10:00:59;;;;;;;2.08;0.70;;;28.50;51.30;;;;;;5003768;28;20072;-66
2022/07/25 10:03:44;;;;;;;2.13;0.93;;;28.60;51.00;;;;;;5004231;28;20213;-65
2022/07/25 10:06:27;;;;;;;1.02;0.90;;;28.60;51.00;;;;;;5004372;28;20523;-65
2022/07/25 10:08:53;;;;;;;1.13;0.88;;;28.70;51.10;;;;;;5005741;28;20057;-65
2022/07/25 10:11:24;;;;;;;2.10;0.60;;;28.70;51.00;;;;;;5002820;28;20061;-65
2022/07/25 10:13:51;;;;;;;1.08;0.50;;;28.70;50.80;;;;;;5000609;28;20091;-66
2022/07/25 10:16:23;;;;;;;1.85;1.08;;;28.70;50.60;;;;;;5000801;28;20104;-66
2022/07/25 10:18:51;;;;;;;1.58;0.80;;;28.80;50.20;;;;;;5001271;28;20089;-66
2022/07/25 10:21:17;;;;;;;1.08;0.80;;;28.70;50.10;;;;;;5001168;28;20113;-65
2022/07/25 10:23:45;;;;;;;2.35;1.10;;;28.70;50.20;;;;;;5006245;28;20033;-65
2022/07/25 10:26:18;;;;;;;2.00;1.00;;;28.70;49.90;;;;;;5003215;28;20117;-64
2022/07/25 10:28:46;;;;;;;2.80;1.00;;;28.60;49.30;;;;;;5003162;28;20535;-65
2022/07/25 10:31:18;;;;;;;2.08;0.90;;;28.50;49.30;;;;;;5003830;28;20034;-65
2022/07/25 10:33:48;;;;;;;2.55;1.05;;;28.50;49.50;;;;;;5005513;28;20083;-66
2022/07/25 10:36:13;;;;;;;1.10;0.90;;;28.50;50.00;;;;;;5003698;28;20014;-65
2022/07/25 10:38:42;;;;;;;1.92;1.10;;;28.50;50.40;;;;;;5001591;28;20033;-66
2022/07/25 10:41:11;;;;;;;2.17;0.98;;;28.60;50.50;;;;;;5001943;28;20030;-66
2022/07/25 10:43:38;;;;;;;2.03;1.00;;;28.60;50.70;;;;;;5000554;28;20099;-65
2022/07/25 10:46:16;;;;;;;2.03;1.10;;;28.70;50.70;;;;;;5002044;28;20018;-65
2022/07/25 10:48:42;;;;;;;2.33;1.02;;;28.70;50.90;;;;;;5000487;28;20397;-66
2022/07/25 10:51:10;;;;;;;1.33;1.00;;;28.90;50.90;;;;;;5001023;28;20029;-65
2022/07/25 10:53:42;;;;;;;2.88;1.10;;;29.00;50.60;;;;;;5000520;28;20120;-66
2022/07/25 10:56:14;;;;;;;2.63;1.20;;;29.00;50.10;;;;;;5002006;28;20026;-66
2022/07/25 10:58:51;;;;;;;3.17;1.33;;;29.10;49.60;;;;;;4999601;28;20057;-65
2022/07/25 11:01:28;;;;;;;2.60;1.50;;;29.00;48.40;;;;;;5002708;28;20037;-66
2022/07/25 11:03:55;;;;;;;1.80;1.10;;;28.80;47.50;;;;;;5005165;28;20512;-66
2022/07/25 11:06:39;;;;;;;1.83;1.20;;;28.80;47.80;;;;;;5002748;28;20029;-65
2022/07/25 11:09:15;;;;;;;3.95;1.40;;;28.70;48.10;;;;;;5000254;28;21231;-66
2022/07/25 11:11:47;;;;;;;2.00;1.10;;;28.70;48.40;;;;;;5002620;28;20048;-65
2022/07/25 11:14:18;;;;;;;2.08;1.00;;;28.80;48.50;;;;;;5001679;28;20034;-65
2022/07/25 11:16:45;;;;;;;3.50;1.17;;;28.90;48.50;;;;;;5001332;28;20026;-65
2022/07/25 11:19:28;;;;;;;2.95;1.33;;;29.00;48.50;;;;;;5001290;28;20113;-65
2022/07/25 11:21:57;;;;;;;1.98;1.10;;;29.00;48.50;;;;;;5006574;28;20037;-65
2022/07/25 11:24:40;;;;;;;2.30;1.20;;;29.00;48.60;;;;;;5002583;28;20034;-65
2022/07/25 11:27:08;;;;;;;2.45;1.10;;;29.00;48.70;;;;;;5002290;28;20029;-65
2022/07/25 11:29:34;;;;;;;1.52;0.98;;;28.90;49.00;;;;;;4999830;28;20022;-65
2022/07/25 11:32:02;;;;;;;3.25;1.40;;;28.90;49.00;;;;;;5003317;28;20029;-66
2022/07/25 11:34:30;;;;;;;4.50;1.23;;;29.00;49.20;;;;;;5004414;28;20101;-66
2022/07/25 11:36:57;;;;;;;3.65;1.20;;;29.00;48.90;;;;;;5003970;28;20026;-65
2022/07/25 11:39:28;;;;;;;3.70;1.15;;;29.00;49.20;;;;;;4999126;28;20379;-65
2022/07/25 11:42:08;;;;;;;2.50;1.35;;;28.90;48.50;;;;;;5011407;28;20117;-65
2022/07/25 11:44:34;;;;;;;1.93;1.10;;;28.70;48.30;;;;;;5006349;28;20416;-65
2022/07/25 11:47:00;;;;;;;4.65;1.70;;;28.50;48.50;;;;;;5004665;28;20026;-65
2022/07/25 11:49:25;;;;;;;2.70;1.30;;;28.30;48.90;;;;;;4999187;28;20034;-65
2022/07/25 11:51:51;;;;;;;3.35;1.30;;;28.20;49.40;;;;;;5001399;28;20091;-65
2022/07/25 11:54:17;;;;;;;3.35;1.35;;;28.10;49.50;;;;;;5001305;28;20057;-66
2022/07/25 11:56:45;;;;;;;3.13;1.40;;;27.90;49.50;;;;;;5002374;28;20030;-65
2022/07/25 11:59:11;;;;;;;3.38;1.38;;;27.90;49.70;;;;;;5001059;28;20091;-66
2022/07/25 12:01:40;;;;;;;2.85;1.20;;;27.80;49.90;;;;;;5001948;28;20521;-65
2022/07/25 12:04:14;;;;;;;2.40;1.23;;;27.70;50.10;;;;;;5002090;28;20106;-66
2022/07/25 12:06:42;;;;;;;2.45;1.23;;;27.60;50.10;;;;;;5000504;28;20504;-65
2022/07/25 12:09:16;;;;;;;2.35;1.08;;;27.70;50.30;;;;;;5001958;28;20033;-65
2022/07/25 12:11:42;;;;;;;4.75;1.48;;;27.60;50.00;;;;;;5001103;28;20030;-65
2022/07/25 12:14:09;;;;;;;3.58;1.45;;;27.50;49.90;;;;;;5000513;28;20813;-65
2022/07/25 12:16:35;;;;;;;2.95;1.40;;;27.50;50.10;;;;;;5002616;28;20044;-65
2022/07/25 12:19:02;;;;;;;3.10;1.30;;;27.50;49.80;;;;;;5002717;28;20054;-64
2022/07/25 12:21:27;;;;;;;2.78;1.10;;;27.60;49.50;;;;;;5003310;28;20488;-65
2022/07/25 12:23:53;;;;;;;1.80;1.20;;;27.70;48.70;;;;;;5007272;28;20041;-65
2022/07/25 12:26:19;;;;;;;2.47;1.30;;;27.80;48.30;;;;;;5011292;28;20029;-64
2022/07/25 12:28:44;;;;;;;3.35;1.60;;;27.90;48.00;;;;;;5012242;28;20038;-66
2022/07/25 12:31:10;;;;;;;4.28;1.90;;;28.00;47.70;;;;;;5010759;28;20096;-65
2022/07/25 12:33:35;;;;;;;8.07;1.60;;;28.00;47.50;;;;;;5012007;28;20034;-65
2022/07/25 12:36:02;;;;;;;2.97;1.40;;;27.90;47.60;;;;;;5012549;28;20452;-65
2022/07/25 12:38:28;;;;;;;3.70;1.35;;;27.80;47.90;;;;;;5015861;28;20045;-66
2022/07/25 12:40:54;;;;;;;4.00;1.60;;;27.80;48.00;;;;;;5016213;28;20496;-65
2022/07/25 12:43:21;;;;;;;3.90;1.60;;;27.80;48.30;;;;;;5011149;28;20018;-65
2022/07/25 12:45:47;;;;;;;3.55;1.63;;;27.70;48.60;;;;;;5010704;28;20031;-66
2022/07/25 12:48:13;;;;;;;2.55;1.67;;;27.80;48.50;;;;;;5003767;28;20080;-65